Time;durP1;ratioP1;P1;durP2;ratioP2;P2;SDS_P1;SDS_P2;PMS_P1;PMS_P2;Temp;Humidity;BMP_temperature;BMP_pressure;BME280_temperature;BME280_humidity;BME280_pressure;Samples;Min_cycle;Max_cycle;Signal;HPM_P1;HPM_P2
2022/02/17 00:01:51;;;;;;;26.92;4.82;;;;;;;;;;5033462;28;20121;-61
2022/02/17 00:04:17;;;;;;;24.10;4.57;;;;;;;;;;5033343;28;20049;-62
2022/02/17 00:06:43;;;;;;;25.02;5.13;;;;;;;;;;5041957;28;20033;-61
2022/02/17 00:09:09;;;;;;;27.45;4.75;;;;;;;;;;5032928;28;20050;-62
2022/02/17 00:11:39;;;;;;;30.25;4.57;;;;;;;;;;5031421;28;20120;-62
2022/02/17 00:14:05;;;;;;;29.88;5.53;;;;;;;;;;5068521;28;20065;-61
2022/02/17 00:16:31;;;;;;;37.05;5.70;;;;;;;;;;5033241;28;20037;-62
2022/02/17 00:18:57;;;;;;;35.28;5.40;;;;;;;;;;5037154;28;20355;-62
2022/02/17 00:21:24;;;;;;;29.42;5.22;;;;;;;;;;5042452;28;20475;-61
2022/02/17 00:23:50;;;;;;;39.42;8.10;;;;;;;;;;5032120;28;20132;-62
2022/02/17 00:26:16;;;;;;;33.78;6.63;;;;;;;;;;5030925;28;20120;-61
2022/02/17 00:28:42;;;;;;;27.90;3.88;;;;;;;;;;5031501;28;20088;-62
2022/02/17 00:31:08;;;;;;;17.20;4.75;;;;;;;;;;5031530;28;20074;-61
2022/02/17 00:33:38;;;;;;;16.98;2.85;;;;;;;;;;5035567;28;20267;-61
2022/02/17 00:36:05;;;;;;;14.40;2.40;;;;;;;;;;5066958;28;20435;-61
2022/02/17 00:38:31;;;;;;;14.35;2.53;;;;;;;;;;5033950;28;20045;-61
2022/02/17 00:40:57;;;;;;;19.48;4.25;;;;;;;;;;5034431;28;20042;-61
2022/02/17 00:43:23;;;;;;;14.23;3.10;;;;;;;;;;5070609;28;20052;-61
2022/02/17 00:45:50;;;;;;;23.65;3.88;;;;;;;;;;5052309;28;20052;-62
2022/02/17 00:48:16;;;;;;;20.00;4.43;;;;;;;;;;5042561;28;20077;-61
2022/02/17 00:50:42;;;;;;;22.35;3.75;;;;;;;;;;5034687;28;20128;-61
2022/02/17 00:53:08;;;;;;;29.45;6.70;;;;;;;;;;5036193;28;20049;-61
2022/02/17 00:55:35;;;;;;;29.08;4.65;;;;;;;;;;5066832;28;20041;-61
2022/02/17 00:58:01;;;;;;;30.40;5.55;;;;;;;;;;5065505;28;20051;-61
2022/02/17 01:00:27;;;;;;;26.73;5.45;;;;;;;;;;5034488;28;20140;-61
2022/02/17 01:02:53;;;;;;;29.27;4.60;;;;;;;;;;5034572;28;20124;-61
2022/02/17 01:05:20;;;;;;;32.15;7.70;;;;;;;;;;5034433;28;20080;-61
2022/02/17 01:07:46;;;;;;;22.15;4.65;;;;;;;;;;5068182;28;20061;-61
2022/02/17 01:10:13;;;;;;;25.13;5.00;;;;;;;;;;5036664;28;20095;-61
2022/02/17 01:12:39;;;;;;;26.70;4.65;;;;;;;;;;5080920;28;20119;-61
2022/02/17 01:15:05;;;;;;;21.55;4.13;;;;;;;;;;5048635;28;20037;-61
2022/02/17 01:17:31;;;;;;;24.08;4.63;;;;;;;;;;5052969;28;20044;-61
2022/02/17 01:19:58;;;;;;;29.77;5.40;;;;;;;;;;5045947;28;20073;-62
2022/02/17 01:22:24;;;;;;;40.10;5.78;;;;;;;;;;5034200;28;20124;-61
2022/02/17 01:24:50;;;;;;;32.30;4.85;;;;;;;;;;5045556;28;20090;-61
2022/02/17 01:27:16;;;;;;;26.30;4.93;;;;;;;;;;5044414;28;20180;-61
2022/02/17 01:29:42;;;;;;;32.25;6.18;;;;;;;;;;5034159;28;20121;-62
2022/02/17 01:32:08;;;;;;;35.70;5.60;;;;;;;;;;5035808;28;20539;-61
2022/02/17 01:34:35;;;;;;;34.90;6.07;;;;;;;;;;5035325;28;20049;-61
2022/02/17 01:37:01;;;;;;;38.78;6.88;;;;;;;;;;5048694;28;20044;-62
2022/02/17 01:39:27;;;;;;;31.52;5.97;;;;;;;;;;5068791;28;20049;-61
2022/02/17 01:41:55;;;;;;;31.60;5.72;;;;;;;;;;5032683;28;20053;-61
2022/02/17 01:44:21;;;;;;;33.75;6.18;;;;;;;;;;5064629;28;20516;-61
2022/02/17 01:46:47;;;;;;;40.83;7.75;;;;;;;;;;5034957;28;20123;-61
2022/02/17 01:49:14;;;;;;;44.00;7.47;;;;;;;;;;5032297;28;20049;-61
2022/02/17 01:51:40;;;;;;;30.30;6.03;;;;;;;;;;5065427;28;20046;-61
2022/02/17 01:54:06;;;;;;;46.55;5.90;;;;;;;;;;5033242;28;20421;-61
2022/02/17 01:56:34;;;;;;;36.10;7.00;;;;;;;;;;5035820;28;20135;-61
2022/02/17 01:59:03;;;;;;;26.85;5.45;;;;;;;;;;5033361;28;20126;-61
2022/02/17 02:01:30;;;;;;;36.58;6.75;;;;;;;;;;5043759;28;20045;-61
2022/02/17 02:03:56;;;;;;;29.85;5.63;;;;;;;;;;5051515;28;20051;-61
2022/02/17 02:06:22;;;;;;;37.58;6.05;;;;;;;;;;5047693;28;20428;-61
2022/02/17 02:08:48;;;;;;;36.30;5.40;;;;;;;;;;5034029;28;20037;-61
2022/02/17 02:11:14;;;;;;;35.40;5.93;;;;;;;;;;5080586;28;20080;-61
2022/02/17 02:13:41;;;;;;;45.83;7.18;;;;;;;;;;5033302;28;20461;-61
2022/02/17 02:16:07;;;;;;;40.60;6.30;;;;;;;;;;5037497;28;20037;-61
2022/02/17 02:18:34;;;;;;;38.47;7.43;;;;;;;;;;5044038;28;20053;-61
2022/02/17 02:21:03;;;;;;;38.92;7.82;;;;;;;;;;5032924;28;20067;-61
2022/02/17 02:23:29;;;;;;;34.50;6.78;;;;;;;;;;5047662;28;20045;-61
2022/02/17 02:25:56;;;;;;;36.38;6.47;;;;;;;;;;5051457;28;20415;-61
2022/02/17 02:28:23;;;;;;;37.60;6.93;;;;;;;;;;5048785;28;20080;-61
2022/02/17 02:30:50;;;;;;;34.17;5.28;;;;;;;;;;5067348;28;20386;-61
2022/02/17 02:33:16;;;;;;;39.90;7.63;;;;;;;;;;5035568;28;20041;-61
2022/02/17 02:35:43;;;;;;;35.60;6.90;;;;;;;;;;5032389;28;20041;-61
2022/02/17 02:38:09;;;;;;;37.10;5.93;;;;;;;;;;5032825;28;20037;-61
2022/02/17 02:40:36;;;;;;;36.70;7.00;;;;;;;;;;5064212;28;20077;-61
2022/02/17 02:43:02;;;;;;;43.28;7.60;;;;;;;;;;5032302;28;20049;-62
2022/02/17 02:45:28;;;;;;;33.38;5.85;;;;;;;;;;5064209;28;20132;-61
2022/02/17 02:47:55;;;;;;;33.42;6.03;;;;;;;;;;5032568;28;20103;-61
2022/02/17 02:50:21;;;;;;;29.52;6.15;;;;;;;;;;5032393;28;20081;-61
2022/02/17 02:52:47;;;;;;;26.95;5.60;;;;;;;;;;5031733;28;20531;-61
2022/02/17 02:55:13;;;;;;;38.45;6.85;;;;;;;;;;5031577;28;20091;-61
2022/02/17 02:57:40;;;;;;;36.92;8.13;;;;;;;;;;5034198;28;20446;-61
2022/02/17 03:00:06;;;;;;;46.67;8.25;;;;;;;;;;5033172;28;20037;-61
2022/02/17 03:02:32;;;;;;;43.40;6.53;;;;;;;;;;5032390;28;20120;-61
2022/02/17 03:04:58;;;;;;;38.28;6.63;;;;;;;;;;5037346;28;20029;-61
2022/02/17 03:07:25;;;;;;;38.33;6.15;;;;;;;;;;5049258;28;20139;-61
2022/02/17 03:09:51;;;;;;;36.72;6.43;;;;;;;;;;5068986;28;20050;-61
2022/02/17 03:12:17;;;;;;;31.88;6.00;;;;;;;;;;5031344;28;20532;-61
2022/02/17 03:14:44;;;;;;;41.95;7.85;;;;;;;;;;5031988;28;20411;-61
2022/02/17 03:17:10;;;;;;;35.88;6.88;;;;;;;;;;5038701;28;20709;-61
2022/02/17 03:19:36;;;;;;;26.90;5.18;;;;;;;;;;5032634;28;20051;-61
2022/02/17 03:22:03;;;;;;;44.35;8.80;;;;;;;;;;5037224;28;20041;-61
2022/02/17 03:24:29;;;;;;;38.38;6.97;;;;;;;;;;5068566;28;20103;-61
2022/02/17 03:26:55;;;;;;;32.38;5.95;;;;;;;;;;5031328;28;20056;-62
2022/02/17 03:29:22;;;;;;;34.25;6.40;;;;;;;;;;5033058;28;20037;-61
2022/02/17 03:31:48;;;;;;;38.33;5.95;;;;;;;;;;5063860;28;20061;-61
2022/02/17 03:34:14;;;;;;;44.92;7.03;;;;;;;;;;5042099;28;20080;-61
2022/02/17 03:36:40;;;;;;;32.35;6.10;;;;;;;;;;5043014;28;20057;-61
2022/02/17 03:39:06;;;;;;;38.40;6.30;;;;;;;;;;5033763;28;20057;-61
2022/02/17 03:41:32;;;;;;;30.08;5.97;;;;;;;;;;5030927;28;20041;-61
2022/02/17 03:43:58;;;;;;;37.08;7.10;;;;;;;;;;5035772;28;20042;-61
2022/02/17 03:46:25;;;;;;;35.75;5.93;;;;;;;;;;5031599;28;20034;-61
2022/02/17 03:48:51;;;;;;;42.58;7.15;;;;;;;;;;5075325;28;20132;-61
2022/02/17 03:51:17;;;;;;;40.90;5.97;;;;;;;;;;5032070;28;20049;-61
2022/02/17 03:53:44;;;;;;;38.70;7.80;;;;;;;;;;5033651;28;20056;-61
2022/02/17 03:56:10;;;;;;;53.05;7.15;;;;;;;;;;5032279;28;20045;-61
2022/02/17 04:01:21;;;;;;;37.45;7.78;;;;;;;;;;5031017;28;20136;-61
2022/02/17 04:03:47;;;;;;;38.15;7.28;;;;;;;;;;5031582;28;20447;-61
2022/02/17 04:06:13;;;;;;;43.13;8.15;;;;;;;;;;5032184;28;20049;-61
2022/02/17 04:08:39;;;;;;;33.28;5.63;;;;;;;;;;5066456;28;20041;-61
2022/02/17 04:11:05;;;;;;;33.65;8.48;;;;;;;;;;5045082;28;20041;-61
2022/02/17 04:13:31;;;;;;;42.20;6.85;;;;;;;;;;5035179;28;20053;-61
2022/02/17 04:15:57;;;;;;;35.35;6.70;;;;;;;;;;5034699;28;20100;-61
2022/02/17 04:18:23;;;;;;;39.05;6.38;;;;;;;;;;5054114;28;20048;-60
2022/02/17 04:20:50;;;;;;;33.00;6.32;;;;;;;;;;5040137;28;20045;-61
2022/02/17 04:23:16;;;;;;;39.90;6.18;;;;;;;;;;5034123;28;20049;-61
2022/02/17 04:25:42;;;;;;;39.33;9.05;;;;;;;;;;5036114;28;20049;-61
2022/02/17 04:28:08;;;;;;;34.75;5.90;;;;;;;;;;5035104;28;20056;-61
2022/02/17 04:30:34;;;;;;;39.03;6.82;;;;;;;;;;5066167;28;20219;-61
2022/02/17 04:33:01;;;;;;;33.08;5.68;;;;;;;;;;5037592;28;20049;-61
2022/02/17 04:35:27;;;;;;;36.35;6.43;;;;;;;;;;5034888;28;20125;-61
2022/02/17 04:37:53;;;;;;;36.85;6.43;;;;;;;;;;5043191;28;20079;-61
2022/02/17 04:40:20;;;;;;;40.78;7.85;;;;;;;;;;5076985;28;20477;-61
2022/02/17 04:42:46;;;;;;;36.47;8.45;;;;;;;;;;5080807;28;20389;-61
2022/02/17 04:45:12;;;;;;;41.40;6.55;;;;;;;;;;5045422;28;20493;-61
2022/02/17 04:47:38;;;;;;;38.97;7.05;;;;;;;;;;5034832;28;20037;-61
2022/02/17 04:50:04;;;;;;;32.90;6.07;;;;;;;;;;5033707;28;20481;-61
2022/02/17 04:52:30;;;;;;;36.00;6.72;;;;;;;;;;5036796;28;20052;-61
2022/02/17 04:54:57;;;;;;;36.20;6.65;;;;;;;;;;5066242;28;20049;-61
2022/02/17 04:57:23;;;;;;;42.33;6.68;;;;;;;;;;5045098;28;20045;-61
2022/02/17 04:59:49;;;;;;;39.65;6.30;;;;;;;;;;5052820;28;20064;-61
2022/02/17 05:02:15;;;;;;;31.60;6.25;;;;;;;;;;5046741;28;20121;-61
2022/02/17 05:04:41;;;;;;;27.27;5.63;;;;;;;;;;5033447;28;20506;-61
2022/02/17 05:07:07;;;;;;;44.05;6.65;;;;;;;;;;5066135;28;20127;-62
2022/02/17 05:09:34;;;;;;;32.03;5.70;;;;;;;;;;5044240;28;20140;-61
2022/02/17 05:12:00;;;;;;;28.90;5.38;;;;;;;;;;5051574;28;20144;-61
2022/02/17 05:14:26;;;;;;;32.45;5.35;;;;;;;;;;5033946;28;20114;-61
2022/02/17 05:16:52;;;;;;;24.58;6.78;;;;;;;;;;5033909;28;20124;-61
2022/02/17 05:19:18;;;;;;;30.52;5.40;;;;;;;;;;5034669;28;20124;-61
2022/02/17 05:21:45;;;;;;;27.58;5.13;;;;;;;;;;5033683;28;20132;-61
2022/02/17 05:24:11;;;;;;;34.08;6.47;;;;;;;;;;5047569;28;20184;-61
2022/02/17 05:26:37;;;;;;;30.13;6.75;;;;;;;;;;5037721;28;20122;-61
2022/02/17 05:29:03;;;;;;;36.42;6.25;;;;;;;;;;5039384;28;20511;-61
2022/02/17 05:31:30;;;;;;;33.92;6.45;;;;;;;;;;5037949;28;20504;-61
2022/02/17 05:33:56;;;;;;;31.92;5.88;;;;;;;;;;5034624;28;20045;-61
2022/02/17 05:36:22;;;;;;;43.03;9.07;;;;;;;;;;5034066;28;20417;-61
2022/02/17 05:38:48;;;;;;;36.80;7.25;;;;;;;;;;5033415;28;20045;-61
2022/02/17 05:41:15;;;;;;;33.38;5.00;;;;;;;;;;5064645;28;20057;-61
2022/02/17 05:43:42;;;;;;;31.10;6.22;;;;;;;;;;5041872;28;20171;-61
2022/02/17 05:46:08;;;;;;;45.78;8.30;;;;;;;;;;5041230;28;20541;-61
2022/02/17 05:48:34;;;;;;;38.53;8.25;;;;;;;;;;5032595;28;20045;-61
2022/02/17 05:51:00;;;;;;;28.50;5.38;;;;;;;;;;5032912;28;20053;-61
2022/02/17 05:53:26;;;;;;;34.45;5.30;;;;;;;;;;5035297;28;20049;-61
2022/02/17 05:55:52;;;;;;;44.20;6.45;;;;;;;;;;5039029;28;20049;-61
2022/02/17 05:58:19;;;;;;;33.42;6.70;;;;;;;;;;5045942;28;20053;-61
2022/02/17 06:00:45;;;;;;;35.65;5.57;;;;;;;;;;5039402;28;20484;-61
2022/02/17 06:03:11;;;;;;;32.70;5.80;;;;;;;;;;5045017;28;20511;-61
2022/02/17 06:05:38;;;;;;;32.83;5.05;;;;;;;;;;5043860;28;20769;-62
2022/02/17 06:08:05;;;;;;;36.33;7.60;;;;;;;;;;5041971;28;20132;-60
2022/02/17 06:10:32;;;;;;;40.15;7.10;;;;;;;;;;5038614;28;20570;-62
2022/02/17 06:12:58;;;;;;;32.65;6.72;;;;;;;;;;5042490;28;20049;-61
2022/02/17 06:15:24;;;;;;;42.40;8.80;;;;;;;;;;5033021;28;20042;-62
2022/02/17 06:17:50;;;;;;;34.85;7.65;;;;;;;;;;5037827;28;20040;-62
2022/02/17 06:20:16;;;;;;;33.08;6.03;;;;;;;;;;5033463;28;20190;-61
2022/02/17 06:22:43;;;;;;;32.65;7.78;;;;;;;;;;5069221;28;20045;-61
2022/02/17 06:25:09;;;;;;;41.80;6.10;;;;;;;;;;5035776;28;20041;-61
2022/02/17 06:27:35;;;;;;;31.95;6.50;;;;;;;;;;5035140;28;20046;-62
2022/02/17 06:30:04;;;;;;;39.95;7.32;;;;;;;;;;5034299;28;20151;-61
2022/02/17 06:32:30;;;;;;;28.52;6.07;;;;;;;;;;5072142;28;20040;-61
2022/02/17 06:34:56;;;;;;;31.38;7.75;;;;;;;;;;5036437;28;20124;-67
2022/02/17 06:37:22;;;;;;;35.97;6.28;;;;;;;;;;5045163;28;20636;-61
2022/02/17 06:39:48;;;;;;;34.00;6.93;;;;;;;;;;5050956;28;20132;-62
2022/02/17 06:42:16;;;;;;;26.77;6.32;;;;;;;;;;5051158;28;20124;-61
2022/02/17 06:44:42;;;;;;;38.15;5.68;;;;;;;;;;5034799;28;20154;-61
2022/02/17 06:47:08;;;;;;;23.63;6.32;;;;;;;;;;5032312;28;20116;-61
2022/02/17 06:49:34;;;;;;;35.03;7.35;;;;;;;;;;5031277;28;20911;-61
2022/02/17 06:52:04;;;;;;;24.55;4.50;;;;;;;;;;5039444;28;20041;-61
2022/02/17 06:54:30;;;;;;;30.98;5.00;;;;;;;;;;5050446;28;20081;-61
2022/02/17 06:56:57;;;;;;;23.60;5.60;;;;;;;;;;5049663;28;20041;-61
2022/02/17 06:59:23;;;;;;;22.55;4.78;;;;;;;;;;5049439;28;20052;-61
2022/02/17 07:01:49;;;;;;;25.45;4.63;;;;;;;;;;5050389;28;20376;-62
2022/02/17 07:04:15;;;;;;;29.65;5.50;;;;;;;;;;5049597;28;20041;-61
2022/02/17 07:06:42;;;;;;;31.00;6.75;;;;;;;;;;5036252;28;20052;-61
2022/02/17 07:09:09;;;;;;;33.33;6.00;;;;;;;;;;5035765;28;20509;-61
2022/02/17 07:11:35;;;;;;;24.85;5.53;;;;;;;;;;5032589;28;20041;-61
2022/02/17 07:14:02;;;;;;;21.58;5.70;;;;;;;;;;5050435;28;20485;-62
2022/02/17 07:16:29;;;;;;;27.65;5.75;;;;;;;;;;5031902;28;20042;-62
2022/02/17 07:18:55;;;;;;;28.83;5.22;;;;;;;;;;5035466;28;20064;-60
2022/02/17 07:21:21;;;;;;;30.08;7.43;;;;;;;;;;5045953;28;20477;-61
2022/02/17 07:23:47;;;;;;;30.15;5.30;;;;;;;;;;5049646;28;20056;-61
2022/02/17 07:26:13;;;;;;;35.47;5.53;;;;;;;;;;5043221;28;20090;-61
2022/02/17 07:28:40;;;;;;;30.17;4.82;;;;;;;;;;5035531;28;20032;-61
2022/02/17 07:31:07;;;;;;;31.77;5.55;;;;;;;;;;5033559;28;20046;-61
2022/02/17 07:33:34;;;;;;;28.40;4.75;;;;;;;;;;5032494;28;20037;-61
2022/02/17 07:36:01;;;;;;;23.38;5.63;;;;;;;;;;5034360;28;20093;-61
2022/02/17 07:38:27;;;;;;;35.42;6.13;;;;;;;;;;5038386;28;20045;-61
2022/02/17 07:40:53;;;;;;;27.13;5.32;;;;;;;;;;5043817;28;20053;-61
2022/02/17 07:43:20;;;;;;;26.80;5.05;;;;;;;;;;5047024;28;20041;-61
2022/02/17 07:45:47;;;;;;;33.20;6.22;;;;;;;;;;5044864;28;20112;-61
2022/02/17 07:48:13;;;;;;;28.83;5.70;;;;;;;;;;5047516;28;20049;-61
2022/02/17 07:50:39;;;;;;;33.50;6.35;;;;;;;;;;5048959;28;20041;-61
2022/02/17 07:53:05;;;;;;;32.00;5.53;;;;;;;;;;5047119;28;20047;-62
2022/02/17 07:55:33;;;;;;;27.70;3.80;;;;;;;;;;5050052;28;20066;-61
2022/02/17 07:58:01;;;;;;;28.13;4.78;;;;;;;;;;5047250;28;20069;-61
2022/02/17 08:00:28;;;;;;;32.95;5.30;;;;;;;;;;5046541;28;20580;-61
2022/02/17 08:02:54;;;;;;;27.95;4.97;;;;;;;;;;5046851;28;20469;-61
2022/02/17 08:05:20;;;;;;;32.38;5.80;;;;;;;;;;5045601;28;20083;-61
2022/02/17 08:07:46;;;;;;;35.20;5.53;;;;;;;;;;5076054;28;20120;-61
2022/02/17 08:10:12;;;;;;;29.25;5.03;;;;;;;;;;5046674;28;20102;-62
2022/02/17 08:12:40;;;;;;;33.33;5.82;;;;;;;;;;5046346;28;20044;-61
2022/02/17 08:15:06;;;;;;;39.50;6.18;;;;;;;;;;5043894;28;20053;-62
2022/02/17 08:17:32;;;;;;;20.70;4.22;;;;;;;;;;5078635;28;20044;-61
2022/02/17 08:19:59;;;;;;;29.63;4.55;;;;;;;;;;5047724;28;20129;-61
2022/02/17 08:22:25;;;;;;;30.08;5.30;;;;;;;;;;5031432;28;20033;-60
2022/02/17 08:24:51;;;;;;;30.17;4.72;;;;;;;;;;5047687;28;20064;-61
2022/02/17 08:27:18;;;;;;;34.88;6.70;;;;;;;;;;5047053;28;20053;-61
2022/02/17 08:29:44;;;;;;;34.25;6.07;;;;;;;;;;5043686;28;20044;-61
2022/02/17 08:32:10;;;;;;;38.20;6.38;;;;;;;;;;5045220;28;20246;-61
2022/02/17 08:34:36;;;;;;;25.55;4.35;;;;;;;;;;5047374;28;20048;-61
2022/02/17 08:37:03;;;;;;;25.23;4.88;;;;;;;;;;5047204;28;20052;-61
2022/02/17 08:39:29;;;;;;;27.02;4.43;;;;;;;;;;5045008;28;20132;-61
2022/02/17 08:41:55;;;;;;;33.72;6.57;;;;;;;;;;5048035;28;20048;-61
2022/02/17 08:44:21;;;;;;;32.03;5.10;;;;;;;;;;5045999;28;20044;-61
2022/02/17 08:46:48;;;;;;;39.28;5.93;;;;;;;;;;5044179;28;20063;-61
2022/02/17 08:49:14;;;;;;;26.05;5.93;;;;;;;;;;5043592;28;20381;-63
2022/02/17 08:51:41;;;;;;;31.52;5.07;;;;;;;;;;5059088;28;20041;-64
2022/02/17 08:54:07;;;;;;;26.30;5.32;;;;;;;;;;5047026;28;20136;-65
2022/02/17 08:56:34;;;;;;;36.53;6.68;;;;;;;;;;5045773;28;20049;-65
2022/02/17 08:59:00;;;;;;;28.17;6.32;;;;;;;;;;5045021;28;20492;-65
2022/02/17 09:01:26;;;;;;;25.52;5.15;;;;;;;;;;5042039;28;20040;-65
2022/02/17 09:03:52;;;;;;;23.65;4.25;;;;;;;;;;5045428;28;20075;-65
2022/02/17 09:06:19;;;;;;;27.60;5.45;;;;;;;;;;5043621;28;20064;-66
2022/02/17 09:08:45;;;;;;;38.95;5.88;;;;;;;;;;5044419;28;20037;-65
2022/02/17 09:11:12;;;;;;;27.40;4.53;;;;;;;;;;5043526;28;20053;-64
2022/02/17 09:13:38;;;;;;;31.40;5.88;;;;;;;;;;5045945;28;20155;-64
2022/02/17 09:16:05;;;;;;;33.65;5.70;;;;;;;;;;5046618;28;20060;-64
2022/02/17 09:18:31;;;;;;;31.77;6.82;;;;;;;;;;5043678;28;20370;-64
2022/02/17 09:20:57;;;;;;;27.92;4.72;;;;;;;;;;5045056;28;20068;-64
2022/02/17 09:23:24;;;;;;;30.42;5.90;;;;;;;;;;5045659;28;20039;-65
2022/02/17 09:25:50;;;;;;;29.65;5.07;;;;;;;;;;5043008;28;21724;-69
2022/02/17 09:28:16;;;;;;;33.15;5.03;;;;;;;;;;5046492;28;20037;-65
2022/02/17 09:30:43;;;;;;;24.05;5.25;;;;;;;;;;5073862;28;20056;-63
2022/02/17 09:33:09;;;;;;;27.38;4.43;;;;;;;;;;5043791;28;20041;-62
2022/02/17 09:35:36;;;;;;;28.48;5.35;;;;;;;;;;5045891;28;20049;-63
2022/02/17 09:38:02;;;;;;;35.65;5.75;;;;;;;;;;5042013;28;20481;-62
2022/02/17 09:40:28;;;;;;;31.17;5.57;;;;;;;;;;5059909;28;20138;-62
2022/02/17 09:42:55;;;;;;;33.35;5.60;;;;;;;;;;5043908;28;20057;-62
2022/02/17 09:45:21;;;;;;;26.02;5.22;;;;;;;;;;5042827;28;20079;-62
2022/02/17 09:47:48;;;;;;;32.55;6.18;;;;;;;;;;5041424;28;20095;-62
2022/02/17 09:50:15;;;;;;;26.73;4.70;;;;;;;;;;5044618;28;20090;-62
2022/02/17 09:52:42;;;;;;;29.40;6.63;;;;;;;;;;5075150;28;20091;-62
2022/02/17 09:55:11;;;;;;;28.48;4.55;;;;;;;;;;5043347;28;20056;-62
2022/02/17 09:57:38;;;;;;;32.80;5.28;;;;;;;;;;5043383;28;20057;-62
2022/02/17 10:00:06;;;;;;;25.20;5.78;;;;;;;;;;5041565;28;20067;-62
2022/02/17 10:02:32;;;;;;;30.40;6.78;;;;;;;;;;5077270;28;20041;-62
2022/02/17 10:04:59;;;;;;;26.77;4.82;;;;;;;;;;5042149;28;20042;-62
2022/02/17 10:07:30;;;;;;;29.25;5.55;;;;;;;;;;5041547;28;20045;-62
2022/02/17 10:10:05;;;;;;;29.08;5.13;;;;;;;;;;5045907;28;20045;-62
2022/02/17 10:12:51;;;;;;;30.77;6.07;;;;;;;;;;5064060;28;20063;-62
2022/02/17 10:15:25;;;;;;;23.25;4.55;;;;;;;;;;5051035;28;20049;-61
2022/02/17 10:18:02;;;;;;;25.73;5.03;;;;;;;;;;5078189;28;20053;-62
2022/02/17 10:20:28;;;;;;;24.88;5.55;;;;;;;;;;5035769;28;20033;-62
2022/02/17 10:23:06;;;;;;;26.20;5.63;;;;;;;;;;5047454;28;20060;-62
2022/02/17 10:25:32;;;;;;;31.38;5.63;;;;;;;;;;5032792;28;20129;-62
2022/02/17 10:28:11;;;;;;;30.90;5.78;;;;;;;;;;5041252;28;20221;-61
2022/02/17 10:30:40;;;;;;;34.40;5.75;;;;;;;;;;5033638;28;20042;-62
2022/02/17 10:33:07;;;;;;;34.55;5.18;;;;;;;;;;5033364;28;20485;-62
2022/02/17 10:35:33;;;;;;;29.40;6.10;;;;;;;;;;5048858;28;20362;-62
2022/02/17 10:38:00;;;;;;;25.60;6.18;;;;;;;;;;5045954;28;20534;-62
2022/02/17 10:40:29;;;;;;;27.33;5.55;;;;;;;;;;5050864;28;20425;-62
2022/02/17 10:43:06;;;;;;;30.23;5.30;;;;;;;;;;5050511;28;20507;-62
2022/02/17 10:45:32;;;;;;;30.15;5.20;;;;;;;;;;5048722;28;20041;-62
2022/02/17 10:48:12;;;;;;;29.80;5.45;;;;;;;;;;5075030;28;20328;-62
2022/02/17 10:50:38;;;;;;;25.15;4.50;;;;;;;;;;5039685;28;20127;-62
2022/02/17 10:53:15;;;;;;;25.80;4.20;;;;;;;;;;5035234;28;20473;-63
2022/02/17 10:55:52;;;;;;;21.98;4.35;;;;;;;;;;5067653;28;20072;-63
2022/02/17 10:58:18;;;;;;;27.10;4.70;;;;;;;;;;5032567;28;20045;-63
2022/02/17 11:00:44;;;;;;;30.67;4.00;;;;;;;;;;5068249;28;20049;-63
2022/02/17 11:03:10;;;;;;;25.52;4.40;;;;;;;;;;5032750;28;20124;-62
2022/02/17 11:05:38;;;;;;;23.73;5.25;;;;;;;;;;5067417;28;20114;-62
2022/02/17 11:08:06;;;;;;;24.15;4.78;;;;;;;;;;5037062;28;20045;-62
2022/02/17 11:10:32;;;;;;;27.92;4.72;;;;;;;;;;5031495;28;20041;-62
2022/02/17 11:12:58;;;;;;;28.27;5.68;;;;;;;;;;5035908;28;20161;-63
2022/02/17 11:15:25;;;;;;;15.05;3.55;;;;;;;;;;5033363;28;20060;-63
2022/02/17 11:17:51;;;;;;;27.20;6.10;;;;;;;;;;5033711;28;20060;-63
2022/02/17 11:20:18;;;;;;;25.65;5.28;;;;;;;;;;5044477;28;20056;-63
2022/02/17 11:22:47;;;;;;;27.73;4.85;;;;;;;;;;5044584;28;20040;-63
2022/02/17 11:25:13;;;;;;;22.75;4.95;;;;;;;;;;5042157;28;20060;-62
2022/02/17 11:27:58;;;;;;;26.50;5.68;;;;;;;;;;5041954;28;20076;-62
2022/02/17 11:30:27;;;;;;;24.02;5.80;;;;;;;;;;5031960;28;20443;-62
2022/02/17 11:33:11;;;;;;;31.58;5.50;;;;;;;;;;5038088;28;20049;-62
2022/02/17 11:35:37;;;;;;;25.90;4.55;;;;;;;;;;5049415;28;20057;-62
2022/02/17 11:38:23;;;;;;;21.88;4.68;;;;;;;;;;5069618;28;20044;-61
2022/02/17 11:40:59;;;;;;;24.05;4.72;;;;;;;;;;5048107;28;20417;-62
2022/02/17 11:43:28;;;;;;;26.70;4.78;;;;;;;;;;5037211;28;20060;-62
2022/02/17 11:45:54;;;;;;;28.63;5.75;;;;;;;;;;5058706;28;20568;-62
2022/02/17 11:48:40;;;;;;;28.13;5.28;;;;;;;;;;5068763;28;20120;-62
2022/02/17 11:51:11;;;;;;;20.60;4.65;;;;;;;;;;5073315;28;20053;-63
2022/02/17 11:53:38;;;;;;;25.60;4.82;;;;;;;;;;5043292;28;20093;-63
2022/02/17 11:56:07;;;;;;;25.25;5.10;;;;;;;;;;5044913;28;20083;-62
2022/02/17 11:58:44;;;;;;;28.88;4.70;;;;;;;;;;5040804;28;20049;-62
2022/02/17 12:01:28;;;;;;;26.63;5.05;;;;;;;;;;5040389;28;20092;-63
2022/02/17 12:03:58;;;;;;;22.60;4.30;;;;;;;;;;5031694;28;20087;-63
2022/02/17 12:06:32;;;;;;;25.92;4.32;;;;;;;;;;5038847;28;20080;-62
2022/02/17 12:08:58;;;;;;;19.02;4.60;;;;;;;;;;5031718;28;20124;-62
2022/02/17 12:11:27;;;;;;;19.27;4.13;;;;;;;;;;5031618;28;20467;-62
2022/02/17 12:13:54;;;;;;;21.05;3.83;;;;;;;;;;5039326;28;20041;-62
2022/02/17 12:16:33;;;;;;;23.52;4.75;;;;;;;;;;5041739;28;20132;-62
2022/02/17 12:19:14;;;;;;;22.50;4.13;;;;;;;;;;5041982;28;20068;-62
2022/02/17 12:21:41;;;;;;;15.98;3.72;;;;;;;;;;5040562;28;20083;-62
2022/02/17 12:24:08;;;;;;;20.45;3.60;;;;;;;;;;5042642;28;20136;-63
2022/02/17 12:26:41;;;;;;;19.52;4.80;;;;;;;;;;5040642;28;20053;-62
2022/02/17 12:29:21;;;;;;;25.47;4.17;;;;;;;;;;5044020;28;20150;-62
2022/02/17 12:31:48;;;;;;;21.77;5.25;;;;;;;;;;5046960;28;20048;-62
2022/02/17 12:34:14;;;;;;;24.70;3.50;;;;;;;;;;5044058;28;20355;-62
2022/02/17 12:36:41;;;;;;;18.00;3.53;;;;;;;;;;5045223;28;20029;-62
2022/02/17 12:39:08;;;;;;;16.08;3.28;;;;;;;;;;5043487;28;20061;-63
2022/02/17 12:41:34;;;;;;;18.50;4.00;;;;;;;;;;5046074;28;20098;-62
2022/02/17 12:44:00;;;;;;;23.67;4.53;;;;;;;;;;5046488;28;20037;-62
2022/02/17 12:46:27;;;;;;;22.33;4.05;;;;;;;;;;5046010;28;20097;-62
2022/02/17 12:48:54;;;;;;;24.20;4.88;;;;;;;;;;5046459;28;20052;-62
2022/02/17 12:51:25;;;;;;;22.08;4.00;;;;;;;;;;5048551;28;20053;-62
2022/02/17 12:53:52;;;;;;;26.30;4.57;;;;;;;;;;5047825;28;20056;-62
2022/02/17 12:56:26;;;;;;;24.23;4.18;;;;;;;;;;5045747;28;20068;-61
2022/02/17 12:58:52;;;;;;;;;;;;;;;;;;5079210;28;20049;-62
2022/02/17 13:01:25;;;;;;;20.00;3.33;;;;;;;;;;5046475;28;20054;-62
2022/02/17 13:03:51;;;;;;;24.47;4.87;;;;;;;;;;5043752;28;20033;-62
2022/02/17 13:06:18;;;;;;;26.30;4.25;;;;;;;;;;5037675;28;20283;-62
2022/02/17 13:08:45;;;;;;;18.15;3.30;;;;;;;;;;5052801;28;20049;-62
2022/02/17 13:11:12;;;;;;;18.85;4.63;;;;;;;;;;5043568;28;20045;-62
2022/02/17 13:13:39;;;;;;;17.75;4.13;;;;;;;;;;5046004;28;20063;-62
2022/02/17 13:16:05;;;;;;;22.02;4.10;;;;;;;;;;5046216;28;20036;-62
2022/02/17 13:18:31;;;;;;;17.00;4.00;;;;;;;;;;5044449;28;20047;-62
2022/02/17 13:21:08;;;;;;;22.88;5.07;;;;;;;;;;5048153;28;20088;-62
2022/02/17 13:23:35;;;;;;;28.77;4.28;;;;;;;;;;5039289;28;20385;-61
2022/02/17 13:26:01;;;;;;;24.63;3.90;;;;;;;;;;5054859;28;20049;-62
2022/02/17 13:28:27;;;;;;;24.02;4.30;;;;;;;;;;5042027;28;20515;-62
2022/02/17 13:30:53;;;;;;;21.90;5.07;;;;;;;;;;5042869;28;20175;-62
2022/02/17 13:33:21;;;;;;;21.33;4.43;;;;;;;;;;5042244;28;20037;-62
2022/02/17 13:35:50;;;;;;;22.30;4.35;;;;;;;;;;5040507;28;20041;-62
2022/02/17 13:38:16;;;;;;;25.13;4.47;;;;;;;;;;5038919;28;20037;-62
2022/02/17 13:40:44;;;;;;;20.45;4.03;;;;;;;;;;5041522;28;20057;-62
2022/02/17 13:43:10;;;;;;;22.60;4.53;;;;;;;;;;5046609;28;20049;-62
2022/02/17 13:45:38;;;;;;;28.42;4.18;;;;;;;;;;5043974;28;20102;-62
2022/02/17 13:48:05;;;;;;;26.02;4.45;;;;;;;;;;5043038;28;20041;-62
2022/02/17 13:50:31;;;;;;;26.50;5.47;;;;;;;;;;5043654;28;20040;-62
2022/02/17 13:52:58;;;;;;;26.10;5.38;;;;;;;;;;5042185;28;20115;-62
2022/02/17 13:55:25;;;;;;;21.27;4.10;;;;;;;;;;5042625;28;20045;-62
2022/02/17 13:57:51;;;;;;;26.08;4.35;;;;;;;;;;5045277;28;20055;-61
2022/02/17 14:00:18;;;;;;;18.10;3.60;;;;;;;;;;5042597;28;20413;-62
2022/02/17 14:02:44;;;;;;;22.08;4.25;;;;;;;;;;5073183;28;20045;-62
2022/02/17 14:05:10;;;;;;;32.75;6.00;;;;;;;;;;5040659;28;20076;-62
2022/02/17 14:07:38;;;;;;;24.92;4.65;;;;;;;;;;5044285;28;20069;-62
2022/02/17 14:10:06;;;;;;;20.05;4.00;;;;;;;;;;5038702;28;20059;-62
2022/02/17 14:12:32;;;;;;;24.35;4.20;;;;;;;;;;5039553;28;20048;-62
2022/02/17 14:15:02;;;;;;;25.48;4.90;;;;;;;;;;5039684;28;20175;-62
2022/02/17 14:17:28;;;;;;;21.73;5.13;;;;;;;;;;5075117;28;20048;-62
2022/02/17 14:19:55;;;;;;;24.73;4.20;;;;;;;;;;5031369;28;20072;-62
2022/02/17 14:22:21;;;;;;;25.40;4.07;;;;;;;;;;5033250;28;20136;-62
2022/02/17 14:24:47;;;;;;;20.73;4.47;;;;;;;;;;5042769;28;20500;-62
2022/02/17 14:27:13;;;;;;;18.23;4.07;;;;;;;;;;5074529;28;20116;-62
2022/02/17 14:29:39;;;;;;;29.55;4.47;;;;;;;;;;5046809;28;20041;-62
2022/02/17 14:32:07;;;;;;;20.25;4.15;;;;;;;;;;5042001;28;20041;-62
2022/02/17 14:34:34;;;;;;;20.15;3.47;;;;;;;;;;5036464;28;20044;-62